sensor_id;sensor_type;location;lat;lon;timestamp;P1;durP1;ratioP1;P2;durP2;ratioP2
41631;SDS011;37452;51.938;4.624;2023-06-10T00:01:45;8.77;;;6.57;;
41631;SDS011;37452;51.938;4.624;2023-06-10T00:04:13;9.40;;;6.47;;
41631;SDS011;37452;51.938;4.624;2023-06-10T00:06:39;10.23;;;6.88;;
41631;SDS011;37452;51.938;4.624;2023-06-10T00:09:06;14.60;;;7.25;;
41631;SDS011;37452;51.938;4.624;2023-06-10T00:11:39;10.07;;;6.68;;
41631;SDS011;37452;51.938;4.624;2023-06-10T00:14:05;9.30;;;6.85;;
41631;SDS011;37452;51.938;4.624;2023-06-10T00:16:30;10.50;;;7.32;;
41631;SDS011;37452;51.938;4.624;2023-06-10T00:18:56;11.27;;;6.25;;
41631;SDS011;37452;51.938;4.624;2023-06-10T00:21:25;9.40;;;6.20;;
41631;SDS011;37452;51.938;4.624;2023-06-10T00:24:04;9.52;;;6.38;;
41631;SDS011;37452;51.938;4.624;2023-06-10T00:26:30;11.73;;;7.13;;
41631;SDS011;37452;51.938;4.624;2023-06-10T00:28:56;12.93;;;6.57;;
41631;SDS011;37452;51.938;4.624;2023-06-10T00:31:21;11.10;;;7.28;;
41631;SDS011;37452;51.938;4.624;2023-06-10T00:33:46;9.40;;;6.63;;
41631;SDS011;37452;51.938;4.624;2023-06-10T00:36:11;10.57;;;7.03;;
41631;SDS011;37452;51.938;4.624;2023-06-10T00:38:37;10.52;;;6.95;;
41631;SDS011;37452;51.938;4.624;2023-06-10T00:41:02;8.98;;;7.15;;
41631;SDS011;37452;51.938;4.624;2023-06-10T00:43:27;10.23;;;7.60;;
41631;SDS011;37452;51.938;4.624;2023-06-10T00:45:53;20.45;;;6.85;;
41631;SDS011;37452;51.938;4.624;2023-06-10T00:48:19;9.35;;;6.65;;
41631;SDS011;37452;51.938;4.624;2023-06-10T00:50:45;13.20;;;7.47;;
41631;SDS011;37452;51.938;4.624;2023-06-10T00:53:11;9.30;;;7.07;;
41631;SDS011;37452;51.938;4.624;2023-06-10T00:55:37;10.00;;;7.55;;
41631;SDS011;37452;51.938;4.624;2023-06-10T00:58:03;10.68;;;6.93;;
41631;SDS011;37452;51.938;4.624;2023-06-10T01:00:28;11.60;;;7.22;;
41631;SDS011;37452;51.938;4.624;2023-06-10T01:02:54;10.05;;;6.40;;
41631;SDS011;37452;51.938;4.624;2023-06-10T01:05:20;10.48;;;7.05;;
41631;SDS011;37452;51.938;4.624;2023-06-10T01:10:43;9.23;;;6.80;;
41631;SDS011;37452;51.938;4.624;2023-06-10T01:13:11;9.68;;;6.57;;
41631;SDS011;37452;51.938;4.624;2023-06-10T01:15:38;11.75;;;6.80;;
41631;SDS011;37452;51.938;4.624;2023-06-10T01:18:05;8.15;;;6.25;;
41631;SDS011;37452;51.938;4.624;2023-06-10T01:20:34;10.02;;;7.03;;
41631;SDS011;37452;51.938;4.624;2023-06-10T01:23:05;10.27;;;6.70;;
41631;SDS011;37452;51.938;4.624;2023-06-10T01:25:31;10.30;;;6.50;;
41631;SDS011;37452;51.938;4.624;2023-06-10T01:33:28;10.35;;;6.55;;
41631;SDS011;37452;51.938;4.624;2023-06-10T01:35:58;9.25;;;6.68;;
41631;SDS011;37452;51.938;4.624;2023-06-10T01:38:25;9.90;;;6.47;;
41631;SDS011;37452;51.938;4.624;2023-06-10T01:40:52;9.52;;;6.57;;
41631;SDS011;37452;51.938;4.624;2023-06-10T01:43:19;10.57;;;6.82;;
41631;SDS011;37452;51.938;4.624;2023-06-10T01:45:45;12.70;;;7.10;;
41631;SDS011;37452;51.938;4.624;2023-06-10T01:48:11;10.80;;;6.50;;
41631;SDS011;37452;51.938;4.624;2023-06-10T01:50:36;9.35;;;6.63;;
41631;SDS011;37452;51.938;4.624;2023-06-10T01:53:03;9.57;;;6.82;;
41631;SDS011;37452;51.938;4.624;2023-06-10T01:55:28;10.60;;;6.38;;
41631;SDS011;37452;51.938;4.624;2023-06-10T01:57:54;11.40;;;6.97;;
41631;SDS011;37452;51.938;4.624;2023-06-10T02:00:19;9.90;;;6.97;;
41631;SDS011;37452;51.938;4.624;2023-06-10T02:02:45;11.20;;;6.85;;
41631;SDS011;37452;51.938;4.624;2023-06-10T02:05:10;9.98;;;6.78;;
41631;SDS011;37452;51.938;4.624;2023-06-10T02:07:36;10.70;;;6.85;;
41631;SDS011;37452;51.938;4.624;2023-06-10T02:10:01;10.02;;;7.20;;
41631;SDS011;37452;51.938;4.624;2023-06-10T02:12:26;14.90;;;6.50;;
41631;SDS011;37452;51.938;4.624;2023-06-10T02:14:52;13.38;;;6.68;;
41631;SDS011;37452;51.938;4.624;2023-06-10T02:17:17;11.75;;;6.88;;
41631;SDS011;37452;51.938;4.624;2023-06-10T02:19:42;11.40;;;6.70;;
41631;SDS011;37452;51.938;4.624;2023-06-10T02:22:08;9.13;;;6.88;;
41631;SDS011;37452;51.938;4.624;2023-06-10T02:24:35;9.45;;;6.28;;
41631;SDS011;37452;51.938;4.624;2023-06-10T02:27:03;10.27;;;6.78;;
41631;SDS011;37452;51.938;4.624;2023-06-10T02:29:31;12.63;;;6.72;;
41631;SDS011;37452;51.938;4.624;2023-06-10T02:31:57;9.65;;;6.47;;
41631;SDS011;37452;51.938;4.624;2023-06-10T02:34:23;11.38;;;6.35;;
41631;SDS011;37452;51.938;4.624;2023-06-10T02:36:48;9.00;;;6.05;;
41631;SDS011;37452;51.938;4.624;2023-06-10T02:39:16;9.27;;;6.78;;
41631;SDS011;37452;51.938;4.624;2023-06-10T02:41:41;8.93;;;6.03;;
41631;SDS011;37452;51.938;4.624;2023-06-10T02:44:07;12.02;;;6.22;;
41631;SDS011;37452;51.938;4.624;2023-06-10T02:46:32;9.88;;;6.75;;
41631;SDS011;37452;51.938;4.624;2023-06-10T02:48:57;10.95;;;6.28;;
41631;SDS011;37452;51.938;4.624;2023-06-10T02:51:22;10.43;;;6.32;;
41631;SDS011;37452;51.938;4.624;2023-06-10T02:53:48;11.35;;;6.80;;
41631;SDS011;37452;51.938;4.624;2023-06-10T02:56:15;8.25;;;5.88;;
41631;SDS011;37452;51.938;4.624;2023-06-10T02:58:41;9.07;;;6.43;;
41631;SDS011;37452;51.938;4.624;2023-06-10T03:01:06;9.48;;;6.15;;
41631;SDS011;37452;51.938;4.624;2023-06-10T03:03:32;9.45;;;5.70;;
41631;SDS011;37452;51.938;4.624;2023-06-10T03:05:58;9.95;;;6.43;;
41631;SDS011;37452;51.938;4.624;2023-06-10T03:08:24;10.20;;;7.00;;
41631;SDS011;37452;51.938;4.624;2023-06-10T03:10:50;11.20;;;6.45;;
41631;SDS011;37452;51.938;4.624;2023-06-10T03:13:15;15.48;;;6.45;;
41631;SDS011;37452;51.938;4.624;2023-06-10T03:15:41;9.30;;;5.78;;
41631;SDS011;37452;51.938;4.624;2023-06-10T03:18:07;10.45;;;5.55;;
41631;SDS011;37452;51.938;4.624;2023-06-10T03:20:32;9.48;;;5.82;;
41631;SDS011;37452;51.938;4.624;2023-06-10T03:23:02;7.97;;;5.30;;
41631;SDS011;37452;51.938;4.624;2023-06-10T03:25:27;12.40;;;5.95;;
41631;SDS011;37452;51.938;4.624;2023-06-10T03:27:53;11.38;;;5.93;;
41631;SDS011;37452;51.938;4.624;2023-06-10T03:30:19;10.13;;;5.63;;
41631;SDS011;37452;51.938;4.624;2023-06-10T03:32:44;9.70;;;5.32;;
41631;SDS011;37452;51.938;4.624;2023-06-10T03:35:09;8.07;;;5.28;;
41631;SDS011;37452;51.938;4.624;2023-06-10T03:37:35;11.38;;;5.68;;
41631;SDS011;37452;51.938;4.624;2023-06-10T03:40:00;7.63;;;5.10;;
41631;SDS011;37452;51.938;4.624;2023-06-10T03:42:26;8.63;;;4.70;;
41631;SDS011;37452;51.938;4.624;2023-06-10T03:44:51;8.38;;;4.85;;
41631;SDS011;37452;51.938;4.624;2023-06-10T03:47:17;8.45;;;5.72;;
41631;SDS011;37452;51.938;4.624;2023-06-10T03:49:43;7.88;;;4.78;;
41631;SDS011;37452;51.938;4.624;2023-06-10T03:52:08;8.38;;;4.32;;
41631;SDS011;37452;51.938;4.624;2023-06-10T03:54:33;11.23;;;4.55;;
41631;SDS011;37452;51.938;4.624;2023-06-10T03:56:59;9.32;;;4.82;;
41631;SDS011;37452;51.938;4.624;2023-06-10T03:59:25;7.75;;;4.95;;
41631;SDS011;37452;51.938;4.624;2023-06-10T04:01:51;9.43;;;5.10;;
41631;SDS011;37452;51.938;4.624;2023-06-10T04:04:16;9.05;;;4.47;;
41631;SDS011;37452;51.938;4.624;2023-06-10T04:06:42;9.07;;;4.90;;
41631;SDS011;37452;51.938;4.624;2023-06-10T04:09:08;7.88;;;4.50;;
41631;SDS011;37452;51.938;4.624;2023-06-10T04:11:34;9.80;;;4.85;;
41631;SDS011;37452;51.938;4.624;2023-06-10T04:14:00;7.18;;;4.13;;
41631;SDS011;37452;51.938;4.624;2023-06-10T04:16:26;8.40;;;5.00;;
41631;SDS011;37452;51.938;4.624;2023-06-10T04:18:51;10.70;;;4.88;;
41631;SDS011;37452;51.938;4.624;2023-06-10T04:21:17;9.32;;;4.88;;
41631;SDS011;37452;51.938;4.624;2023-06-10T04:23:42;6.93;;;4.47;;
41631;SDS011;37452;51.938;4.624;2023-06-10T04:26:07;9.25;;;4.85;;
41631;SDS011;37452;51.938;4.624;2023-06-10T04:28:33;9.07;;;4.45;;
41631;SDS011;37452;51.938;4.624;2023-06-10T04:30:58;8.57;;;4.90;;
41631;SDS011;37452;51.938;4.624;2023-06-10T04:33:24;8.30;;;4.95;;
41631;SDS011;37452;51.938;4.624;2023-06-10T04:35:49;8.50;;;4.55;;
41631;SDS011;37452;51.938;4.624;2023-06-10T04:38:15;7.25;;;4.40;;
41631;SDS011;37452;51.938;4.624;2023-06-10T04:40:40;8.98;;;4.32;;
41631;SDS011;37452;51.938;4.624;2023-06-10T04:43:06;8.52;;;4.57;;
41631;SDS011;37452;51.938;4.624;2023-06-10T04:45:31;9.50;;;4.38;;
41631;SDS011;37452;51.938;4.624;2023-06-10T04:47:56;11.25;;;5.43;;
41631;SDS011;37452;51.938;4.624;2023-06-10T04:50:22;9.80;;;4.75;;
41631;SDS011;37452;51.938;4.624;2023-06-10T04:52:48;10.23;;;5.10;;
41631;SDS011;37452;51.938;4.624;2023-06-10T04:55:13;10.52;;;4.80;;
41631;SDS011;37452;51.938;4.624;2023-06-10T04:57:38;9.60;;;4.40;;
41631;SDS011;37452;51.938;4.624;2023-06-10T05:00:04;9.50;;;4.60;;
41631;SDS011;37452;51.938;4.624;2023-06-10T05:02:31;7.10;;;4.32;;
41631;SDS011;37452;51.938;4.624;2023-06-10T05:04:56;8.55;;;4.68;;
41631;SDS011;37452;51.938;4.624;2023-06-10T05:07:22;9.40;;;5.07;;
41631;SDS011;37452;51.938;4.624;2023-06-10T05:09:48;9.18;;;4.90;;
41631;SDS011;37452;51.938;4.624;2023-06-10T05:12:13;9.73;;;4.88;;
41631;SDS011;37452;51.938;4.624;2023-06-10T05:14:39;9.55;;;4.85;;
41631;SDS011;37452;51.938;4.624;2023-06-10T05:17:04;9.20;;;4.85;;
41631;SDS011;37452;51.938;4.624;2023-06-10T05:19:31;8.27;;;4.63;;
41631;SDS011;37452;51.938;4.624;2023-06-10T05:21:57;13.57;;;5.07;;
41631;SDS011;37452;51.938;4.624;2023-06-10T05:24:22;8.38;;;3.80;;
41631;SDS011;37452;51.938;4.624;2023-06-10T05:26:48;8.15;;;4.38;;
41631;SDS011;37452;51.938;4.624;2023-06-10T05:29:14;8.55;;;4.63;;
41631;SDS011;37452;51.938;4.624;2023-06-10T05:31:40;10.82;;;5.20;;
41631;SDS011;37452;51.938;4.624;2023-06-10T05:34:06;10.98;;;4.63;;
41631;SDS011;37452;51.938;4.624;2023-06-10T05:36:31;8.15;;;4.47;;
41631;SDS011;37452;51.938;4.624;2023-06-10T05:38:57;8.10;;;4.70;;
41631;SDS011;37452;51.938;4.624;2023-06-10T05:41:22;12.43;;;4.65;;
41631;SDS011;37452;51.938;4.624;2023-06-10T05:43:48;6.40;;;4.32;;
41631;SDS011;37452;51.938;4.624;2023-06-10T05:46:13;10.27;;;4.25;;
41631;SDS011;37452;51.938;4.624;2023-06-10T05:48:39;6.70;;;4.32;;
41631;SDS011;37452;51.938;4.624;2023-06-10T05:51:04;8.00;;;4.68;;
41631;SDS011;37452;51.938;4.624;2023-06-10T05:53:31;8.13;;;4.70;;
41631;SDS011;37452;51.938;4.624;2023-06-10T05:55:57;10.05;;;4.63;;
41631;SDS011;37452;51.938;4.624;2023-06-10T05:58:22;7.95;;;4.30;;
41631;SDS011;37452;51.938;4.624;2023-06-10T06:00:48;9.50;;;4.97;;
41631;SDS011;37452;51.938;4.624;2023-06-10T06:03:14;8.32;;;4.57;;
41631;SDS011;37452;51.938;4.624;2023-06-10T06:05:39;6.70;;;4.20;;
41631;SDS011;37452;51.938;4.624;2023-06-10T06:08:05;9.82;;;4.63;;
41631;SDS011;37452;51.938;4.624;2023-06-10T06:10:30;10.00;;;5.10;;
41631;SDS011;37452;51.938;4.624;2023-06-10T06:12:56;10.85;;;4.82;;
41631;SDS011;37452;51.938;4.624;2023-06-10T06:15:22;8.63;;;4.45;;
41631;SDS011;37452;51.938;4.624;2023-06-10T06:17:48;6.88;;;4.20;;
41631;SDS011;37452;51.938;4.624;2023-06-10T06:20:13;8.13;;;4.53;;
41631;SDS011;37452;51.938;4.624;2023-06-10T06:22:38;8.77;;;5.15;;
41631;SDS011;37452;51.938;4.624;2023-06-10T06:25:04;10.48;;;5.15;;
41631;SDS011;37452;51.938;4.624;2023-06-10T06:27:30;11.43;;;4.75;;
41631;SDS011;37452;51.938;4.624;2023-06-10T06:29:56;10.50;;;4.65;;
41631;SDS011;37452;51.938;4.624;2023-06-10T06:32:21;9.98;;;4.55;;
41631;SDS011;37452;51.938;4.624;2023-06-10T06:34:47;10.57;;;4.88;;
41631;SDS011;37452;51.938;4.624;2023-06-10T06:37:14;8.45;;;4.80;;
41631;SDS011;37452;51.938;4.624;2023-06-10T06:39:39;8.50;;;4.55;;
41631;SDS011;37452;51.938;4.624;2023-06-10T06:42:05;8.23;;;4.80;;
41631;SDS011;37452;51.938;4.624;2023-06-10T06:44:30;9.18;;;4.18;;
41631;SDS011;37452;51.938;4.624;2023-06-10T06:46:56;7.85;;;5.07;;
41631;SDS011;37452;51.938;4.624;2023-06-10T06:49:21;9.32;;;4.40;;
41631;SDS011;37452;51.938;4.624;2023-06-10T06:51:46;9.82;;;4.53;;
41631;SDS011;37452;51.938;4.624;2023-06-10T06:54:12;7.95;;;4.65;;
41631;SDS011;37452;51.938;4.624;2023-06-10T06:56:37;9.88;;;4.97;;
41631;SDS011;37452;51.938;4.624;2023-06-10T06:59:03;6.95;;;4.43;;
41631;SDS011;37452;51.938;4.624;2023-06-10T07:01:29;11.15;;;5.50;;
41631;SDS011;37452;51.938;4.624;2023-06-10T07:03:54;9.63;;;4.72;;
41631;SDS011;37452;51.938;4.624;2023-06-10T07:06:20;7.80;;;5.18;;
41631;SDS011;37452;51.938;4.624;2023-06-10T07:08:45;11.63;;;4.80;;
41631;SDS011;37452;51.938;4.624;2023-06-10T07:11:10;12.10;;;4.88;;
41631;SDS011;37452;51.938;4.624;2023-06-10T07:13:36;8.82;;;4.55;;
41631;SDS011;37452;51.938;4.624;2023-06-10T07:16:01;9.85;;;4.70;;
41631;SDS011;37452;51.938;4.624;2023-06-10T07:18:27;7.45;;;4.40;;
41631;SDS011;37452;51.938;4.624;2023-06-10T07:20:52;8.30;;;4.85;;
41631;SDS011;37452;51.938;4.624;2023-06-10T07:23:17;7.43;;;4.07;;
41631;SDS011;37452;51.938;4.624;2023-06-10T07:25:43;7.22;;;4.50;;
41631;SDS011;37452;51.938;4.624;2023-06-10T07:28:08;6.22;;;4.30;;
41631;SDS011;37452;51.938;4.624;2023-06-10T07:30:33;9.77;;;4.75;;
41631;SDS011;37452;51.938;4.624;2023-06-10T07:32:59;8.05;;;4.60;;
41631;SDS011;37452;51.938;4.624;2023-06-10T07:35:24;9.50;;;4.63;;
41631;SDS011;37452;51.938;4.624;2023-06-10T07:37:50;7.82;;;4.47;;
41631;SDS011;37452;51.938;4.624;2023-06-10T07:40:15;9.00;;;4.88;;
41631;SDS011;37452;51.938;4.624;2023-06-10T07:42:40;8.88;;;4.63;;
41631;SDS011;37452;51.938;4.624;2023-06-10T07:45:07;9.32;;;4.93;;
41631;SDS011;37452;51.938;4.624;2023-06-10T07:47:33;9.18;;;4.88;;
41631;SDS011;37452;51.938;4.624;2023-06-10T07:49:58;8.25;;;4.88;;
41631;SDS011;37452;51.938;4.624;2023-06-10T07:52:24;7.38;;;4.53;;
41631;SDS011;37452;51.938;4.624;2023-06-10T07:54:49;8.85;;;4.65;;
41631;SDS011;37452;51.938;4.624;2023-06-10T07:57:15;7.57;;;4.63;;
41631;SDS011;37452;51.938;4.624;2023-06-10T07:59:40;7.45;;;4.20;;
41631;SDS011;37452;51.938;4.624;2023-06-10T08:02:06;10.18;;;4.50;;
41631;SDS011;37452;51.938;4.624;2023-06-10T08:04:32;6.50;;;4.18;;
41631;SDS011;37452;51.938;4.624;2023-06-10T08:07:00;8.05;;;4.28;;
41631;SDS011;37452;51.938;4.624;2023-06-10T08:09:25;9.00;;;5.00;;
41631;SDS011;37452;51.938;4.624;2023-06-10T08:11:50;7.05;;;4.43;;
41631;SDS011;37452;51.938;4.624;2023-06-10T08:14:16;8.48;;;4.80;;
41631;SDS011;37452;51.938;4.624;2023-06-10T08:16:41;11.35;;;5.05;;
41631;SDS011;37452;51.938;4.624;2023-06-10T08:19:08;7.00;;;4.32;;
41631;SDS011;37452;51.938;4.624;2023-06-10T08:21:34;6.75;;;4.43;;
41631;SDS011;37452;51.938;4.624;2023-06-10T08:23:59;8.88;;;4.45;;
41631;SDS011;37452;51.938;4.624;2023-06-10T08:26:24;10.43;;;4.50;;
41631;SDS011;37452;51.938;4.624;2023-06-10T08:28:50;9.10;;;4.72;;
41631;SDS011;37452;51.938;4.624;2023-06-10T08:31:15;7.82;;;5.18;;
41631;SDS011;37452;51.938;4.624;2023-06-10T08:33:41;6.93;;;4.10;;
41631;SDS011;37452;51.938;4.624;2023-06-10T08:36:07;8.07;;;4.28;;
41631;SDS011;37452;51.938;4.624;2023-06-10T08:38:32;6.95;;;4.05;;
41631;SDS011;37452;51.938;4.624;2023-06-10T08:40:59;6.90;;;4.05;;
41631;SDS011;37452;51.938;4.624;2023-06-10T08:46:34;8.75;;;4.57;;
41631;SDS011;37452;51.938;4.624;2023-06-10T08:49:02;8.75;;;4.72;;
41631;SDS011;37452;51.938;4.624;2023-06-10T08:51:30;6.93;;;4.38;;
41631;SDS011;37452;51.938;4.624;2023-06-10T08:54:00;5.32;;;3.65;;
41631;SDS011;37452;51.938;4.624;2023-06-10T08:56:28;7.55;;;4.30;;
41631;SDS011;37452;51.938;4.624;2023-06-10T08:58:56;6.32;;;4.22;;
41631;SDS011;37452;51.938;4.624;2023-06-10T09:01:23;5.38;;;3.58;;
41631;SDS011;37452;51.938;4.624;2023-06-10T09:03:50;6.15;;;3.88;;
41631;SDS011;37452;51.938;4.624;2023-06-10T09:06:16;6.78;;;4.03;;
41631;SDS011;37452;51.938;4.624;2023-06-10T09:08:43;8.27;;;4.47;;
41631;SDS011;37452;51.938;4.624;2023-06-10T09:11:08;6.43;;;4.25;;
41631;SDS011;37452;51.938;4.624;2023-06-10T09:13:34;6.95;;;4.15;;
41631;SDS011;37452;51.938;4.624;2023-06-10T09:15:59;7.28;;;4.05;;
41631;SDS011;37452;51.938;4.624;2023-06-10T09:18:26;6.88;;;3.92;;
41631;SDS011;37452;51.938;4.624;2023-06-10T09:20:53;6.60;;;3.95;;
41631;SDS011;37452;51.938;4.624;2023-06-10T09:23:18;6.55;;;3.80;;
41631;SDS011;37452;51.938;4.624;2023-06-10T09:25:43;6.82;;;4.25;;
41631;SDS011;37452;51.938;4.624;2023-06-10T09:28:12;7.63;;;4.43;;
41631;SDS011;37452;51.938;4.624;2023-06-10T09:30:39;6.97;;;3.92;;
41631;SDS011;37452;51.938;4.624;2023-06-10T09:33:12;8.40;;;3.92;;
41631;SDS011;37452;51.938;4.624;2023-06-10T09:35:46;8.38;;;3.83;;
41631;SDS011;37452;51.938;4.624;2023-06-10T09:38:13;6.85;;;4.57;;
41631;SDS011;37452;51.938;4.624;2023-06-10T09:40:58;6.35;;;4.10;;
41631;SDS011;37452;51.938;4.624;2023-06-10T09:43:38;6.88;;;4.05;;
41631;SDS011;37452;51.938;4.624;2023-06-10T09:46:05;5.15;;;3.70;;
41631;SDS011;37452;51.938;4.624;2023-06-10T09:48:34;6.05;;;3.83;;
41631;SDS011;37452;51.938;4.624;2023-06-10T09:51:00;8.60;;;3.90;;
41631;SDS011;37452;51.938;4.624;2023-06-10T09:53:25;5.60;;;4.18;;
41631;SDS011;37452;51.938;4.624;2023-06-10T09:55:51;5.32;;;3.78;;
41631;SDS011;37452;51.938;4.624;2023-06-10T09:58:17;6.30;;;4.20;;
41631;SDS011;37452;51.938;4.624;2023-06-10T10:00:42;7.47;;;4.00;;
41631;SDS011;37452;51.938;4.624;2023-06-10T10:03:07;7.88;;;4.35;;
41631;SDS011;37452;51.938;4.624;2023-06-10T10:05:33;7.00;;;3.92;;
41631;SDS011;37452;51.938;4.624;2023-06-10T10:07:58;7.57;;;4.15;;
41631;SDS011;37452;51.938;4.624;2023-06-10T10:10:23;6.25;;;4.00;;
41631;SDS011;37452;51.938;4.624;2023-06-10T10:12:51;6.85;;;4.10;;
41631;SDS011;37452;51.938;4.624;2023-06-10T10:15:21;8.18;;;3.95;;
41631;SDS011;37452;51.938;4.624;2023-06-10T10:17:52;7.15;;;4.05;;
41631;SDS011;37452;51.938;4.624;2023-06-10T10:20:28;7.85;;;3.78;;
41631;SDS011;37452;51.938;4.624;2023-06-10T10:22:56;6.65;;;4.03;;
41631;SDS011;37452;51.938;4.624;2023-06-10T10:25:24;8.15;;;3.85;;
41631;SDS011;37452;51.938;4.624;2023-06-10T10:28:02;5.75;;;4.10;;
41631;SDS011;37452;51.938;4.624;2023-06-10T10:30:34;7.57;;;3.90;;
41631;SDS011;37452;51.938;4.624;2023-06-10T10:36:21;7.43;;;3.50;;
41631;SDS011;37452;51.938;4.624;2023-06-10T10:38:47;5.35;;;3.75;;
41631;SDS011;37452;51.938;4.624;2023-06-10T10:41:14;4.32;;;3.33;;
41631;SDS011;37452;51.938;4.624;2023-06-10T10:43:40;5.38;;;3.75;;
41631;SDS011;37452;51.938;4.624;2023-06-10T10:46:12;6.32;;;4.05;;
41631;SDS011;37452;51.938;4.624;2023-06-10T10:48:40;6.13;;;3.47;;
41631;SDS011;37452;51.938;4.624;2023-06-10T10:51:08;9.30;;;3.42;;
41631;SDS011;37452;51.938;4.624;2023-06-10T10:53:34;5.55;;;3.65;;
41631;SDS011;37452;51.938;4.624;2023-06-10T10:58:32;6.05;;;3.72;;
41631;SDS011;37452;51.938;4.624;2023-06-10T11:00:58;8.38;;;3.78;;
41631;SDS011;37452;51.938;4.624;2023-06-10T11:03:27;7.50;;;3.70;;
41631;SDS011;37452;51.938;4.624;2023-06-10T11:05:54;7.03;;;4.03;;
41631;SDS011;37452;51.938;4.624;2023-06-10T11:10:53;6.53;;;4.20;;
41631;SDS011;37452;51.938;4.624;2023-06-10T11:13:19;5.80;;;3.67;;
41631;SDS011;37452;51.938;4.624;2023-06-10T11:15:46;5.10;;;3.42;;
41631;SDS011;37452;51.938;4.624;2023-06-10T11:28:41;7.00;;;3.95;;
41631;SDS011;37452;51.938;4.624;2023-06-10T11:31:08;6.18;;;4.07;;
41631;SDS011;37452;51.938;4.624;2023-06-10T11:33:43;4.63;;;3.50;;
41631;SDS011;37452;51.938;4.624;2023-06-10T11:36:09;7.05;;;3.80;;
41631;SDS011;37452;51.938;4.624;2023-06-10T11:38:34;5.25;;;3.40;;
41631;SDS011;37452;51.938;4.624;2023-06-10T11:41:01;6.60;;;4.40;;
41631;SDS011;37452;51.938;4.624;2023-06-10T11:43:27;7.68;;;3.70;;
41631;SDS011;37452;51.938;4.624;2023-06-10T11:45:56;5.05;;;3.30;;
41631;SDS011;37452;51.938;4.624;2023-06-10T11:48:21;5.05;;;3.40;;
41631;SDS011;37452;51.938;4.624;2023-06-10T11:50:47;7.75;;;3.45;;
41631;SDS011;37452;51.938;4.624;2023-06-10T11:53:12;8.35;;;4.20;;
41631;SDS011;37452;51.938;4.624;2023-06-10T11:58:15;5.88;;;3.97;;
41631;SDS011;37452;51.938;4.624;2023-06-10T12:00:47;6.30;;;3.90;;
41631;SDS011;37452;51.938;4.624;2023-06-10T12:03:14;7.55;;;4.00;;
41631;SDS011;37452;51.938;4.624;2023-06-10T12:05:39;5.85;;;3.80;;
41631;SDS011;37452;51.938;4.624;2023-06-10T12:08:08;5.07;;;3.53;;
41631;SDS011;37452;51.938;4.624;2023-06-10T12:10:41;4.78;;;3.55;;
41631;SDS011;37452;51.938;4.624;2023-06-10T12:13:10;5.05;;;3.65;;
41631;SDS011;37452;51.938;4.624;2023-06-10T12:15:35;10.27;;;3.80;;
41631;SDS011;37452;51.938;4.624;2023-06-10T12:18:01;7.40;;;3.70;;
41631;SDS011;37452;51.938;4.624;2023-06-10T12:20:28;8.30;;;3.90;;
41631;SDS011;37452;51.938;4.624;2023-06-10T12:22:54;6.00;;;3.80;;
41631;SDS011;37452;51.938;4.624;2023-06-10T12:25:27;7.32;;;3.42;;
41631;SDS011;37452;51.938;4.624;2023-06-10T12:27:54;6.85;;;3.70;;
41631;SDS011;37452;51.938;4.624;2023-06-10T12:30:21;7.63;;;3.85;;
41631;SDS011;37452;51.938;4.624;2023-06-10T12:32:47;5.82;;;3.70;;
41631;SDS011;37452;51.938;4.624;2023-06-10T12:35:15;5.65;;;4.07;;
41631;SDS011;37452;51.938;4.624;2023-06-10T12:37:43;6.20;;;3.58;;
41631;SDS011;37452;51.938;4.624;2023-06-10T12:40:25;5.05;;;3.55;;
41631;SDS011;37452;51.938;4.624;2023-06-10T12:42:51;5.40;;;3.97;;
41631;SDS011;37452;51.938;4.624;2023-06-10T12:45:25;6.53;;;3.22;;
41631;SDS011;37452;51.938;4.624;2023-06-10T12:48:03;10.73;;;3.85;;
41631;SDS011;37452;51.938;4.624;2023-06-10T12:50:31;6.13;;;3.78;;
41631;SDS011;37452;51.938;4.624;2023-06-10T12:52:56;4.82;;;3.92;;
41631;SDS011;37452;51.938;4.624;2023-06-10T12:55:22;6.38;;;3.60;;
41631;SDS011;37452;51.938;4.624;2023-06-10T12:57:47;6.47;;;3.83;;
41631;SDS011;37452;51.938;4.624;2023-06-10T13:00:15;7.60;;;3.80;;
41631;SDS011;37452;51.938;4.624;2023-06-10T13:02:41;5.60;;;4.10;;
41631;SDS011;37452;51.938;4.624;2023-06-10T13:05:07;10.30;;;4.05;;
41631;SDS011;37452;51.938;4.624;2023-06-10T13:07:32;4.82;;;3.40;;
41631;SDS011;37452;51.938;4.624;2023-06-10T13:09:57;6.05;;;3.78;;
41631;SDS011;37452;51.938;4.624;2023-06-10T13:12:24;5.50;;;3.75;;
41631;SDS011;37452;51.938;4.624;2023-06-10T13:14:50;8.52;;;3.40;;
41631;SDS011;37452;51.938;4.624;2023-06-10T13:17:16;5.53;;;3.70;;
41631;SDS011;37452;51.938;4.624;2023-06-10T13:19:42;5.40;;;3.60;;
41631;SDS011;37452;51.938;4.624;2023-06-10T13:22:07;6.88;;;3.63;;
41631;SDS011;37452;51.938;4.624;2023-06-10T13:24:32;7.35;;;3.88;;
41631;SDS011;37452;51.938;4.624;2023-06-10T13:26:58;7.32;;;3.55;;
41631;SDS011;37452;51.938;4.624;2023-06-10T13:29:23;6.68;;;3.70;;
41631;SDS011;37452;51.938;4.624;2023-06-10T13:31:48;6.45;;;3.33;;
41631;SDS011;37452;51.938;4.624;2023-06-10T13:34:14;5.18;;;3.38;;
41631;SDS011;37452;51.938;4.624;2023-06-10T13:36:39;7.40;;;3.83;;
41631;SDS011;37452;51.938;4.624;2023-06-10T13:39:04;4.65;;;3.58;;
41631;SDS011;37452;51.938;4.624;2023-06-10T13:41:30;7.68;;;3.92;;
41631;SDS011;37452;51.938;4.624;2023-06-10T13:43:55;4.57;;;3.58;;
41631;SDS011;37452;51.938;4.624;2023-06-10T13:46:20;4.82;;;3.80;;
41631;SDS011;37452;51.938;4.624;2023-06-10T13:48:51;5.93;;;3.70;;
41631;SDS011;37452;51.938;4.624;2023-06-10T13:51:16;6.10;;;3.72;;
41631;SDS011;37452;51.938;4.624;2023-06-10T13:53:42;5.97;;;3.60;;
41631;SDS011;37452;51.938;4.624;2023-06-10T13:56:07;4.78;;;3.50;;
41631;SDS011;37452;51.938;4.624;2023-06-10T13:58:33;5.65;;;3.22;;
41631;SDS011;37452;51.938;4.624;2023-06-10T14:01:03;5.15;;;3.50;;
41631;SDS011;37452;51.938;4.624;2023-06-10T14:03:29;7.55;;;3.72;;
41631;SDS011;37452;51.938;4.624;2023-06-10T14:05:54;5.38;;;3.53;;
41631;SDS011;37452;51.938;4.624;2023-06-10T14:08:19;4.30;;;3.20;;
41631;SDS011;37452;51.938;4.624;2023-06-10T14:10:45;5.68;;;3.40;;
41631;SDS011;37452;51.938;4.624;2023-06-10T14:13:11;5.28;;;3.78;;
41631;SDS011;37452;51.938;4.624;2023-06-10T14:15:36;6.22;;;3.67;;
41631;SDS011;37452;51.938;4.624;2023-06-10T14:18:02;6.03;;;3.78;;
41631;SDS011;37452;51.938;4.624;2023-06-10T14:20:27;5.85;;;3.95;;
41631;SDS011;37452;51.938;4.624;2023-06-10T14:22:56;4.97;;;3.63;;
41631;SDS011;37452;51.938;4.624;2023-06-10T14:25:21;5.25;;;3.67;;
41631;SDS011;37452;51.938;4.624;2023-06-10T14:27:46;4.95;;;3.65;;
41631;SDS011;37452;51.938;4.624;2023-06-10T14:30:12;6.20;;;3.78;;
41631;SDS011;37452;51.938;4.624;2023-06-10T14:32:38;5.18;;;3.53;;
41631;SDS011;37452;51.938;4.624;2023-06-10T14:35:03;6.40;;;3.65;;
41631;SDS011;37452;51.938;4.624;2023-06-10T14:37:28;5.05;;;3.83;;
41631;SDS011;37452;51.938;4.624;2023-06-10T14:39:54;4.30;;;3.50;;
41631;SDS011;37452;51.938;4.624;2023-06-10T14:42:19;7.45;;;3.58;;
41631;SDS011;37452;51.938;4.624;2023-06-10T14:44:45;5.03;;;3.40;;
41631;SDS011;37452;51.938;4.624;2023-06-10T14:47:10;5.90;;;3.83;;
41631;SDS011;37452;51.938;4.624;2023-06-10T14:49:35;4.57;;;3.47;;
41631;SDS011;37452;51.938;4.624;2023-06-10T14:52:00;5.65;;;3.60;;
41631;SDS011;37452;51.938;4.624;2023-06-10T14:54:26;6.68;;;3.30;;
41631;SDS011;37452;51.938;4.624;2023-06-10T14:56:51;5.95;;;3.65;;
41631;SDS011;37452;51.938;4.624;2023-06-10T14:59:16;7.68;;;3.50;;
41631;SDS011;37452;51.938;4.624;2023-06-10T15:01:42;4.65;;;3.22;;
41631;SDS011;37452;51.938;4.624;2023-06-10T15:04:07;4.80;;;3.58;;
41631;SDS011;37452;51.938;4.624;2023-06-10T15:06:32;4.95;;;3.50;;
41631;SDS011;37452;51.938;4.624;2023-06-10T15:08:57;5.07;;;2.92;;
41631;SDS011;37452;51.938;4.624;2023-06-10T15:11:23;5.07;;;3.40;;
41631;SDS011;37452;51.938;4.624;2023-06-10T15:13:48;4.93;;;3.45;;